createdAt,value
2023-12-10T00:01:57.978Z,6.07
2023-12-10T00:04:29.234Z,5.28
2023-12-10T00:06:57.197Z,5.22
2023-12-10T00:09:24.822Z,4.18
2023-12-10T00:11:51.948Z,5.60
2023-12-10T00:14:18.948Z,5.93
2023-12-10T00:16:45.997Z,5.20
2023-12-10T00:19:14.449Z,5.03
2023-12-10T00:21:41.550Z,5.72
2023-12-10T00:24:09.320Z,3.97
2023-12-10T00:26:36.455Z,4.45
2023-12-10T00:29:03.432Z,6.97
2023-12-10T00:31:30.419Z,5.10
2023-12-10T00:33:58.082Z,4.00
2023-12-10T00:36:28.654Z,5.50
2023-12-10T00:38:55.703Z,4.57
2023-12-10T00:41:22.676Z,3.63
2023-12-10T00:43:49.663Z,5.65
2023-12-10T00:46:16.796Z,4.45
2023-12-10T00:48:43.860Z,3.42
2023-12-10T00:51:19.774Z,5.20
2023-12-10T00:53:48.733Z,3.78
2023-12-10T00:56:16.035Z,4.30
2023-12-10T00:58:43.403Z,3.85
2023-12-10T01:01:10.509Z,5.40
2023-12-10T01:03:38.326Z,2.53
2023-12-10T01:06:07.536Z,3.50
2023-12-10T01:08:35.256Z,4.65
2023-12-10T01:11:03.905Z,3.30
2023-12-10T01:13:30.940Z,3.92
2023-12-10T01:15:57.938Z,3.03
2023-12-10T01:18:25.221Z,3.33
2023-12-10T01:20:52.303Z,2.80
2023-12-10T01:23:19.309Z,4.25
2023-12-10T01:25:46.282Z,3.50
2023-12-10T01:28:15.683Z,3.60
2023-12-10T01:30:42.719Z,4.35
2023-12-10T01:33:09.817Z,3.17
2023-12-10T01:35:37.332Z,3.17
2023-12-10T01:38:04.752Z,3.50
2023-12-10T01:40:31.761Z,3.35
2023-12-10T01:42:58.771Z,2.55
2023-12-10T01:45:27.171Z,3.45
2023-12-10T01:47:54.777Z,3.35
2023-12-10T01:50:23.047Z,4.63
2023-12-10T01:52:50.765Z,3.92
2023-12-10T01:55:18.873Z,3.40
2023-12-10T01:57:46.168Z,3.05
2023-12-10T02:00:14.108Z,3.20
2023-12-10T02:02:43.201Z,3.38
2023-12-10T02:05:11.339Z,3.25
2023-12-10T02:07:38.956Z,3.05
2023-12-10T02:10:07.811Z,3.72
2023-12-10T02:12:35.895Z,3.03
2023-12-10T02:15:14.645Z,3.55
2023-12-10T02:17:43.182Z,3.00
2023-12-10T02:20:11.965Z,3.90
2023-12-10T02:22:46.886Z,3.65
2023-12-10T02:25:20.456Z,3.15
2023-12-10T02:27:49.780Z,4.00
2023-12-10T02:30:16.889Z,3.38
2023-12-10T02:32:44.002Z,4.47
2023-12-10T02:35:10.936Z,4.53
2023-12-10T02:37:37.895Z,4.30
2023-12-10T02:40:06.468Z,5.78
2023-12-10T02:42:33.837Z,3.67
2023-12-10T02:45:02.406Z,4.15
2023-12-10T02:47:29.366Z,3.08
2023-12-10T02:49:56.473Z,4.15
2023-12-10T02:52:23.522Z,5.05
2023-12-10T02:54:50.810Z,5.75
2023-12-10T02:57:17.888Z,2.92
2023-12-10T02:59:44.869Z,3.53
2023-12-10T03:02:13.339Z,3.40
2023-12-10T03:04:40.369Z,6.28
2023-12-10T03:07:07.501Z,4.28
2023-12-10T03:09:34.477Z,4.15
2023-12-10T03:12:57.228Z,6.05
2023-12-10T03:15:33.453Z,4.32
2023-12-10T03:18:01.991Z,4.63
2023-12-10T03:20:29.044Z,4.93
2023-12-10T03:22:59.016Z,6.38
2023-12-10T03:25:26.570Z,5.25
2023-12-10T03:27:53.645Z,6.28
2023-12-10T03:30:21.071Z,3.95
2023-12-10T03:32:48.068Z,6.68
2023-12-10T03:35:16.447Z,7.15
2023-12-10T03:37:44.147Z,7.82
2023-12-10T03:40:12.575Z,7.93
2023-12-10T03:42:39.625Z,7.82
2023-12-10T03:45:08.044Z,6.40
2023-12-10T03:47:35.124Z,7.95
2023-12-10T03:50:02.284Z,8.65
2023-12-10T03:52:31.071Z,8.63
2023-12-10T03:54:58.398Z,9.95
2023-12-10T03:57:25.704Z,10.20
2023-12-10T03:59:52.834Z,8.82
2023-12-10T04:02:19.776Z,7.30
2023-12-10T04:04:47.002Z,10.95
2023-12-10T04:07:14.083Z,7.30
2023-12-10T04:09:42.767Z,8.48
2023-12-10T04:12:09.770Z,9.75
2023-12-10T04:14:36.746Z,11.90
2023-12-10T04:17:04.964Z,9.30
2023-12-10T04:19:32.064Z,9.88
2023-12-10T04:21:59.109Z,9.48
2023-12-10T04:24:26.158Z,11.50
2023-12-10T04:26:54.532Z,9.13
2023-12-10T04:29:21.525Z,10.55
2023-12-10T04:31:48.767Z,14.50
2023-12-10T04:34:15.822Z,10.60
2023-12-10T04:36:42.859Z,10.90
2023-12-10T04:39:10.195Z,11.50
2023-12-10T04:41:37.137Z,10.55
2023-12-10T04:44:05.852Z,6.25
2023-12-10T04:46:32.905Z,9.40
2023-12-10T04:49:00.383Z,6.65
2023-12-10T04:51:27.444Z,11.95
2023-12-10T04:53:54.447Z,9.75
2023-12-10T04:56:21.462Z,12.13
2023-12-10T04:58:48.893Z,11.43
2023-12-10T05:01:17.355Z,5.55
2023-12-10T05:03:44.676Z,6.57
2023-12-10T05:06:11.769Z,7.95
2023-12-10T05:08:38.848Z,13.43
2023-12-10T05:11:06.676Z,11.50
2023-12-10T05:13:33.636Z,10.70
2023-12-10T05:16:00.992Z,17.90
2023-12-10T05:18:29.669Z,9.80
2023-12-10T05:20:56.934Z,16.23
2023-12-10T05:23:23.956Z,16.92
2023-12-10T05:25:50.971Z,16.92
2023-12-10T05:28:18.182Z,10.63
2023-12-10T05:30:45.381Z,10.13
2023-12-10T05:33:12.771Z,14.50
2023-12-10T05:35:41.638Z,11.82
2023-12-10T05:38:08.644Z,8.82
2023-12-10T05:40:35.791Z,9.95
2023-12-10T05:43:05.754Z,12.45
2023-12-10T05:45:32.802Z,11.15
2023-12-10T05:47:59.971Z,14.68
2023-12-10T05:50:27.010Z,15.50
2023-12-10T05:52:55.361Z,19.98
2023-12-10T05:55:22.459Z,11.60
2023-12-10T05:57:49.525Z,8.27
2023-12-10T06:00:17.064Z,8.90
2023-12-10T06:02:44.091Z,14.63
2023-12-10T06:05:12.616Z,12.27
2023-12-10T06:07:40.061Z,11.75
2023-12-10T06:10:10.092Z,16.20
2023-12-10T06:12:37.215Z,13.07
2023-12-10T06:15:06.298Z,10.90
2023-12-10T06:17:33.405Z,5.32
2023-12-10T06:20:00.435Z,9.40
2023-12-10T06:22:27.612Z,12.02
2023-12-10T06:24:55.110Z,13.13
2023-12-10T06:27:23.659Z,9.77
2023-12-10T06:29:50.624Z,12.00
2023-12-10T06:32:17.707Z,16.90
2023-12-10T06:34:45.407Z,12.23
2023-12-10T06:37:12.510Z,9.82
2023-12-10T06:39:39.556Z,10.32
2023-12-10T06:42:06.631Z,7.85
2023-12-10T06:44:35.044Z,13.73
2023-12-10T06:47:02.000Z,8.75
2023-12-10T06:49:29.216Z,17.38
2023-12-10T06:51:56.447Z,9.90
2023-12-10T06:54:23.543Z,11.05
2023-12-10T06:56:50.762Z,11.55
2023-12-10T06:59:17.933Z,13.00
2023-12-10T07:01:46.419Z,12.48
2023-12-10T07:04:14.047Z,10.20
2023-12-10T07:06:41.036Z,11.27
2023-12-10T07:09:08.174Z,8.10
2023-12-10T07:11:35.319Z,11.65
2023-12-10T07:14:02.380Z,13.82
2023-12-10T07:16:29.516Z,11.02
2023-12-10T07:18:58.224Z,14.23
2023-12-10T07:21:25.407Z,8.80
2023-12-10T07:23:52.500Z,13.57
2023-12-10T07:26:22.760Z,8.60
2023-12-10T07:28:52.481Z,10.00
2023-12-10T07:31:19.990Z,14.07
2023-12-10T07:33:47.223Z,12.23
2023-12-10T07:36:15.946Z,10.73
2023-12-10T07:38:43.028Z,10.05
2023-12-10T07:41:10.129Z,10.77
2023-12-10T07:43:37.227Z,8.80
2023-12-10T07:46:04.809Z,7.22
2023-12-10T07:48:31.995Z,10.52
2023-12-10T07:50:59.060Z,11.23
2023-12-10T07:53:27.584Z,13.85
2023-12-10T07:55:54.611Z,9.90
2023-12-10T07:58:21.591Z,8.82
2023-12-10T08:00:49.200Z,13.75
2023-12-10T08:03:16.397Z,5.40
2023-12-10T08:05:43.706Z,10.15
2023-12-10T08:08:10.736Z,9.52
2023-12-10T08:10:39.080Z,8.52
2023-12-10T08:13:06.267Z,9.68
2023-12-10T08:15:33.339Z,12.32
2023-12-10T08:18:00.593Z,10.90
2023-12-10T08:20:27.923Z,9.60
2023-12-10T08:22:54.923Z,10.65
2023-12-10T08:25:22.976Z,10.45
2023-12-10T08:27:51.602Z,7.40
2023-12-10T08:30:19.285Z,8.77
2023-12-10T08:32:46.313Z,9.73
2023-12-10T08:35:13.308Z,6.82
2023-12-10T08:37:40.293Z,6.97
2023-12-10T08:40:08.440Z,8.68
2023-12-10T08:42:35.518Z,9.20
2023-12-10T08:45:05.042Z,7.47
2023-12-10T08:47:32.154Z,4.82
2023-12-10T08:49:59.250Z,11.48
2023-12-10T08:52:26.361Z,10.10
2023-12-10T08:54:53.684Z,6.78
2023-12-10T08:57:24.756Z,7.47
2023-12-10T08:59:51.746Z,7.13
2023-12-10T09:02:20.569Z,4.65
2023-12-10T09:04:47.795Z,3.45
2023-12-10T09:07:14.863Z,6.72
2023-12-10T09:09:41.787Z,7.07
2023-12-10T09:12:08.845Z,6.43
2023-12-10T09:14:35.772Z,7.70
2023-12-10T09:17:03.010Z,3.83
2023-12-10T09:19:33.564Z,6.45
2023-12-10T09:22:00.900Z,5.28
2023-12-10T09:24:28.085Z,7.05
2023-12-10T09:27:02.349Z,8.43
2023-12-10T09:29:31.776Z,4.07
2023-12-10T09:32:04.190Z,4.00
2023-12-10T09:34:32.849Z,4.05
2023-12-10T09:37:00.388Z,5.40
2023-12-10T09:39:30.485Z,7.80
2023-12-10T09:41:57.647Z,5.50
2023-12-10T09:44:24.672Z,4.72
2023-12-10T09:46:51.667Z,4.78
2023-12-10T09:49:19.844Z,6.35
2023-12-10T09:51:48.335Z,4.63
2023-12-10T09:54:15.459Z,3.97
2023-12-10T09:56:42.496Z,4.43
2023-12-10T09:59:09.586Z,6.78
2023-12-10T10:01:36.725Z,4.40
2023-12-10T10:04:03.846Z,4.47
2023-12-10T10:06:31.082Z,3.38
2023-12-10T10:08:59.502Z,4.18
2023-12-10T10:11:26.527Z,3.10
2023-12-10T10:13:54.563Z,5.65
2023-12-10T10:16:21.631Z,3.67
2023-12-10T10:18:49.337Z,4.20
2023-12-10T10:21:16.624Z,4.43
2023-12-10T10:23:43.718Z,2.97
2023-12-10T10:26:13.481Z,4.38
2023-12-10T10:28:40.543Z,4.00
2023-12-10T10:31:16.240Z,3.53
2023-12-10T10:33:48.335Z,1.83
2023-12-10T10:36:19.070Z,3.67
2023-12-10T10:38:47.092Z,4.07
2023-12-10T10:41:15.649Z,4.72
2023-12-10T10:43:42.789Z,7.07
2023-12-10T10:46:11.294Z,4.55
2023-12-10T10:48:44.646Z,4.63
2023-12-10T10:51:15.418Z,6.68
2023-12-10T10:53:43.449Z,3.67
2023-12-10T10:56:10.960Z,2.17
2023-12-10T10:58:41.163Z,2.45
2023-12-10T11:01:40.373Z,2.55
2023-12-10T11:04:11.978Z,2.78
2023-12-10T11:06:42.578Z,3.47
2023-12-10T11:09:09.861Z,4.32
2023-12-10T11:11:40.478Z,1.85
2023-12-10T11:14:20.151Z,4.20
2023-12-10T11:16:57.996Z,2.47
2023-12-10T11:19:25.173Z,2.15
2023-12-10T11:21:52.337Z,2.67
2023-12-10T11:24:19.386Z,3.30
2023-12-10T11:26:46.496Z,2.92
2023-12-10T11:29:14.858Z,3.58
2023-12-10T11:31:43.975Z,3.05
2023-12-10T11:34:11.366Z,4.72
2023-12-10T11:36:38.807Z,5.38
2023-12-10T11:39:12.368Z,8.95
2023-12-10T11:41:52.276Z,6.07
2023-12-10T11:44:28.242Z,8.55
2023-12-10T11:46:58.068Z,4.05
2023-12-10T11:49:25.816Z,3.83
2023-12-10T11:51:53.553Z,5.90
2023-12-10T11:54:20.908Z,4.40
2023-12-10T11:56:48.018Z,4.68
2023-12-10T11:59:16.722Z,4.40
2023-12-10T12:01:47.172Z,2.25
2023-12-10T12:04:14.446Z,2.95
2023-12-10T12:06:43.421Z,3.33
2023-12-10T12:09:15.185Z,3.78
2023-12-10T12:11:42.243Z,2.83
2023-12-10T12:14:15.337Z,3.45
2023-12-10T12:16:42.390Z,3.53
2023-12-10T12:19:10.956Z,3.20
2023-12-10T12:21:38.261Z,5.32
2023-12-10T12:24:05.893Z,6.28
2023-12-10T12:26:33.007Z,5.07
2023-12-10T12:28:59.972Z,3.45
2023-12-10T12:31:27.031Z,3.00
2023-12-10T12:33:54.184Z,3.63
2023-12-10T12:36:22.610Z,5.28
2023-12-10T12:38:49.654Z,2.80
2023-12-10T12:41:16.704Z,2.33
2023-12-10T12:43:43.734Z,2.90
2023-12-10T12:46:10.771Z,2.65
2023-12-10T12:48:38.084Z,3.40
2023-12-10T12:51:05.418Z,6.05
2023-12-10T12:53:33.775Z,3.10
2023-12-10T12:56:20.865Z,2.65
2023-12-10T12:58:50.643Z,1.88
2023-12-10T13:01:17.980Z,4.88
2023-12-10T13:03:45.104Z,4.28
2023-12-10T13:06:12.175Z,4.68
2023-12-10T13:08:40.865Z,5.20
2023-12-10T13:11:07.900Z,5.63
2023-12-10T13:13:35.132Z,4.28
2023-12-10T13:16:02.907Z,6.10
2023-12-10T13:18:30.565Z,3.88
2023-12-10T13:20:57.636Z,6.25
2023-12-10T13:23:37.400Z,7.15
2023-12-10T13:26:06.053Z,4.45
2023-12-10T13:28:33.079Z,5.18
2023-12-10T13:31:00.243Z,2.90
2023-12-10T13:33:27.481Z,3.25
2023-12-10T13:35:54.569Z,4.38
2023-12-10T13:38:21.639Z,3.47
2023-12-10T13:40:48.683Z,3.67
2023-12-10T13:43:18.359Z,1.90
2023-12-10T13:45:45.471Z,1.00
2023-12-10T13:48:12.678Z,1.52
2023-12-10T13:50:39.956Z,0.80
2023-12-10T13:53:07.009Z,1.02
2023-12-10T13:55:34.197Z,5.47
2023-12-10T13:58:01.475Z,2.40
2023-12-10T14:00:29.922Z,6.95
2023-12-10T14:02:57.201Z,6.38
2023-12-10T14:05:25.656Z,7.50
2023-12-10T14:07:52.818Z,10.35
2023-12-10T14:10:19.977Z,5.95
2023-12-10T14:12:47.499Z,10.52
2023-12-10T14:15:14.631Z,6.03
2023-12-10T14:17:43.230Z,6.65
2023-12-10T14:20:12.717Z,4.63
2023-12-10T14:22:40.321Z,7.18
2023-12-10T14:25:08.195Z,7.95
2023-12-10T14:27:35.385Z,4.97
2023-12-10T14:30:02.391Z,9.07
2023-12-10T14:32:29.431Z,8.23
2023-12-10T14:34:57.872Z,10.38
2023-12-10T14:37:25.009Z,7.90
2023-12-10T14:39:52.032Z,5.88
2023-12-10T14:42:19.033Z,7.05
2023-12-10T14:44:46.290Z,9.38
2023-12-10T14:47:13.429Z,8.52
2023-12-10T14:49:40.497Z,8.32
2023-12-10T14:52:09.130Z,9.05
2023-12-10T14:54:36.239Z,5.40
2023-12-10T14:57:03.384Z,5.13
2023-12-10T14:59:31.101Z,3.13
2023-12-10T15:02:06.028Z,3.95
2023-12-10T15:04:39.007Z,4.07
2023-12-10T15:07:06.164Z,3.78
2023-12-10T15:09:37.135Z,2.72
2023-12-10T15:12:04.838Z,0.90
2023-12-10T15:14:31.908Z,1.10
2023-12-10T15:16:58.990Z,1.38
2023-12-10T15:19:26.507Z,3.22
2023-12-10T15:21:55.437Z,2.78
2023-12-10T15:24:22.564Z,2.78
2023-12-10T15:26:51.138Z,1.27
2023-12-10T15:29:18.200Z,1.33
2023-12-10T15:31:45.213Z,2.33
2023-12-10T15:34:12.264Z,4.32
2023-12-10T15:36:39.777Z,2.13
2023-12-10T15:39:06.949Z,2.58
2023-12-10T15:41:33.987Z,3.67
2023-12-10T15:44:02.507Z,1.85
2023-12-10T15:46:29.514Z,2.58
2023-12-10T15:48:56.585Z,6.28
2023-12-10T15:51:23.929Z,6.95
2023-12-10T15:53:50.988Z,6.30
2023-12-10T15:56:17.987Z,4.03
2023-12-10T15:58:44.989Z,9.18
2023-12-10T16:01:17.256Z,4.82
2023-12-10T16:03:45.004Z,6.95
2023-12-10T16:06:12.278Z,3.38
2023-12-10T16:08:39.314Z,3.80
2023-12-10T16:11:06.634Z,4.03
2023-12-10T16:13:34.724Z,5.32
2023-12-10T16:16:04.486Z,6.15
2023-12-10T16:18:33.162Z,7.80
2023-12-10T16:21:03.878Z,6.35
2023-12-10T16:23:35.258Z,3.95
2023-12-10T16:26:02.364Z,5.28
2023-12-10T16:28:29.480Z,9.95
2023-12-10T16:30:56.509Z,9.07
2023-12-10T16:33:23.642Z,3.15
2023-12-10T16:35:52.189Z,5.70
2023-12-10T16:38:19.309Z,4.45
2023-12-10T16:40:46.330Z,6.10
2023-12-10T16:43:13.457Z,5.40
2023-12-10T16:45:40.536Z,8.70
2023-12-10T16:48:07.616Z,7.13
2023-12-10T16:50:35.609Z,7.57
2023-12-10T16:53:04.104Z,6.75
2023-12-10T16:55:31.098Z,7.82
2023-12-10T16:57:59.478Z,6.00
2023-12-10T17:00:26.752Z,5.82
2023-12-10T17:02:53.853Z,5.47
2023-12-10T17:05:21.000Z,3.00
2023-12-10T17:07:51.233Z,6.53
2023-12-10T17:10:24.092Z,5.07
2023-12-10T17:12:53.714Z,6.70
2023-12-10T17:15:21.137Z,6.05
2023-12-10T17:17:48.386Z,5.47
2023-12-10T17:20:16.190Z,5.20
2023-12-10T17:22:43.290Z,5.65
2023-12-10T17:25:10.650Z,8.07
2023-12-10T17:27:39.158Z,7.05
2023-12-10T17:30:07.835Z,5.75
2023-12-10T17:32:34.873Z,5.00
2023-12-10T17:35:04.206Z,6.32
2023-12-10T17:37:31.832Z,2.33
2023-12-10T17:39:59.191Z,2.97
2023-12-10T17:42:26.319Z,4.10
2023-12-10T17:44:57.308Z,5.10
2023-12-10T17:47:25.112Z,8.93
2023-12-10T17:49:52.425Z,4.38
2023-12-10T17:52:19.745Z,5.47
2023-12-10T17:54:46.909Z,4.30
2023-12-10T17:57:13.915Z,5.47
2023-12-10T17:59:41.116Z,8.45
2023-12-10T18:02:09.547Z,9.65
2023-12-10T18:04:39.701Z,4.32
2023-12-10T18:07:07.361Z,8.57
2023-12-10T18:09:34.498Z,8.40
2023-12-10T18:12:01.599Z,10.30
2023-12-10T18:14:28.604Z,6.80
2023-12-10T18:16:56.646Z,11.38
2023-12-10T18:19:25.157Z,8.27
2023-12-10T18:21:52.310Z,5.45
2023-12-10T18:24:19.427Z,7.32
2023-12-10T18:26:46.564Z,6.45
2023-12-10T18:29:13.627Z,11.20
2023-12-10T18:31:40.751Z,7.07
2023-12-10T18:34:07.800Z,10.52
2023-12-10T18:36:36.705Z,8.95
2023-12-10T18:39:04.029Z,7.43
2023-12-10T18:41:31.189Z,8.23
2023-12-10T18:43:58.189Z,10.27
2023-12-10T18:46:25.173Z,9.85
2023-12-10T18:49:10.533Z,6.40
2023-12-10T18:51:46.444Z,11.23
2023-12-10T18:54:18.484Z,7.75
2023-12-10T18:56:57.237Z,10.00
2023-12-10T18:59:30.352Z,7.10
2023-12-10T19:02:02.871Z,10.95
2023-12-10T19:04:30.937Z,10.02
2023-12-10T19:06:59.476Z,12.02
2023-12-10T19:09:28.690Z,11.57
2023-12-10T19:11:59.089Z,10.60
2023-12-10T19:14:41.922Z,8.65
2023-12-10T19:17:43.430Z,9.10
2023-12-10T19:20:56.232Z,7.70
2023-12-10T19:26:34.126Z,14.15
2023-12-10T19:29:11.314Z,14.57
2023-12-10T19:31:41.413Z,9.65
2023-12-10T19:34:11.807Z,12.77
2023-12-10T19:36:40.323Z,9.90
2023-12-10T19:39:44.152Z,11.82
2023-12-10T19:42:11.280Z,11.88
2023-12-10T19:45:06.146Z,13.52
2023-12-10T19:47:33.729Z,9.65
2023-12-10T19:50:01.153Z,11.23
2023-12-10T19:52:30.440Z,12.95
2023-12-10T19:55:17.683Z,16.20
2023-12-10T19:57:50.408Z,15.10
2023-12-10T20:00:36.129Z,14.57
2023-12-10T20:03:06.847Z,9.63
2023-12-10T20:05:36.962Z,11.93
2023-12-10T20:08:24.114Z,13.82
2023-12-10T20:10:53.432Z,11.30
2023-12-10T20:16:35.526Z,13.43
2023-12-10T20:19:09.339Z,11.32
2023-12-10T20:21:36.950Z,9.38
2023-12-10T20:24:31.289Z,11.70
2023-12-10T20:27:16.104Z,12.57
2023-12-10T20:30:04.770Z,16.15
2023-12-10T20:32:32.092Z,11.40
2023-12-10T20:35:02.802Z,10.50
2023-12-10T20:37:29.994Z,10.82
2023-12-10T20:40:02.803Z,10.65
2023-12-10T20:42:34.178Z,12.20
2023-12-10T20:45:03.231Z,13.45
2023-12-10T20:47:31.300Z,9.32
2023-12-10T20:50:05.605Z,11.18
2023-12-10T20:52:33.206Z,4.50
2023-12-10T20:55:00.596Z,10.02
2023-12-10T20:57:28.110Z,11.55
2023-12-10T20:59:59.526Z,6.80
2023-12-10T21:02:29.686Z,10.50
2023-12-10T21:04:57.659Z,6.25
2023-12-10T21:07:25.875Z,5.88
2023-12-10T21:09:56.032Z,5.53
2023-12-10T21:12:23.627Z,6.18
2023-12-10T21:14:55.227Z,5.03
2023-12-10T21:17:24.034Z,4.53
2023-12-10T21:19:51.896Z,9.30
2023-12-10T21:22:21.821Z,7.85
2023-12-10T21:24:51.881Z,11.75
2023-12-10T21:27:19.304Z,14.52
2023-12-10T21:29:53.566Z,8.55
2023-12-10T21:32:23.296Z,8.43
2023-12-10T21:34:53.742Z,8.80
2023-12-10T21:37:21.026Z,10.32
2023-12-10T21:39:48.387Z,9.77
2023-12-10T21:42:15.859Z,13.35
2023-12-10T21:44:43.024Z,10.80
2023-12-10T21:47:13.185Z,10.55
2023-12-10T21:49:44.745Z,10.65
2023-12-10T21:52:13.619Z,9.48
2023-12-10T21:54:43.662Z,14.07
2023-12-10T21:57:16.239Z,8.77
2023-12-10T21:59:43.345Z,7.72
2023-12-10T22:02:10.553Z,12.25
2023-12-10T22:04:40.217Z,9.93
2023-12-10T22:07:11.342Z,7.22
2023-12-10T22:09:40.860Z,11.50
2023-12-10T22:12:11.560Z,14.48
2023-12-10T22:14:38.767Z,11.43
2023-12-10T22:17:09.851Z,12.63
2023-12-10T22:19:43.133Z,11.93
2023-12-10T22:22:13.442Z,12.77
2023-12-10T22:24:45.504Z,9.80
2023-12-10T22:27:15.634Z,13.38
2023-12-10T22:29:42.886Z,11.00
2023-12-10T22:32:12.771Z,10.50
2023-12-10T22:34:43.137Z,9.05
2023-12-10T22:37:14.021Z,12.73
2023-12-10T22:39:42.880Z,9.57
2023-12-10T22:42:10.649Z,10.88
2023-12-10T22:44:42.631Z,8.85
2023-12-10T22:47:10.102Z,10.77
2023-12-10T22:49:42.942Z,11.05
2023-12-10T22:52:11.983Z,8.45
2023-12-10T22:54:39.492Z,13.27
2023-12-10T22:57:08.011Z,6.90
2023-12-10T22:59:38.848Z,9.73
2023-12-10T23:02:06.109Z,8.40
2023-12-10T23:04:34.121Z,12.63
2023-12-10T23:07:01.500Z,8.73
2023-12-10T23:09:31.583Z,8.02
2023-12-10T23:11:58.643Z,8.80
2023-12-10T23:14:27.246Z,8.63
2023-12-10T23:16:54.642Z,13.15
2023-12-10T23:19:26.949Z,9.02
2023-12-10T23:21:54.761Z,9.10
2023-12-10T23:24:22.008Z,9.18
2023-12-10T23:26:49.764Z,7.35
2023-12-10T23:29:20.696Z,11.18
2023-12-10T23:31:49.298Z,10.30
2023-12-10T23:34:16.388Z,10.93
2023-12-10T23:36:43.438Z,11.73
2023-12-10T23:39:10.658Z,8.15
2023-12-10T23:41:38.109Z,9.70
2023-12-10T23:44:05.335Z,8.20
2023-12-10T23:46:32.352Z,4.78
2023-12-10T23:49:01.174Z,6.70
2023-12-10T23:51:28.438Z,13.05
2023-12-10T23:53:55.513Z,9.10
2023-12-10T23:56:22.671Z,12.70
2023-12-10T23:58:49.651Z,8.73
